createdAt,value
2022-08-24T00:00:01.191Z,46.6
2022-08-24T00:05:01.190Z,46.7
2022-08-24T00:10:01.159Z,46.2
2022-08-24T00:15:01.207Z,46.9
2022-08-24T00:20:01.152Z,46.8
2022-08-24T00:30:01.189Z,46.4
2022-08-24T00:35:01.185Z,45.9
2022-08-24T00:40:01.152Z,45.6
2022-08-24T00:45:01.180Z,44.9
2022-08-24T00:50:01.118Z,45.2
2022-08-24T00:55:01.201Z,45.7
2022-08-24T01:00:02.161Z,45.9
2022-08-24T01:15:01.438Z,41.8
2022-08-24T01:20:01.359Z,41.4
2022-08-24T01:25:01.422Z,43.1
2022-08-24T01:30:01.349Z,43.4
2022-08-24T01:35:01.488Z,43.7
2022-08-24T01:40:01.368Z,43.8
2022-08-24T01:45:01.468Z,44.8
2022-08-24T01:50:01.338Z,44.2
2022-08-24T01:55:01.417Z,44.4
2022-08-24T02:00:01.327Z,43.7
2022-08-24T02:05:02.432Z,43.5
2022-08-24T02:10:01.321Z,43.3
2022-08-24T02:15:01.453Z,44.1
2022-08-24T02:20:01.327Z,43.9
2022-08-24T02:25:01.456Z,44.6
2022-08-24T02:30:01.325Z,45.3
2022-08-24T02:35:01.381Z,45.4
2022-08-24T02:40:01.780Z,45.3
2022-08-24T02:45:01.472Z,44.7
2022-08-24T02:50:01.340Z,44.4
2022-08-24T02:55:01.409Z,44.6
2022-08-24T03:00:04.156Z,44.0
2022-08-24T03:05:01.408Z,44.1
2022-08-24T03:10:01.341Z,44.9
2022-08-24T03:15:01.454Z,45.4
2022-08-24T03:20:01.290Z,44.4
2022-08-24T03:25:01.343Z,44.0
2022-08-24T03:30:01.285Z,43.4
2022-08-24T03:35:01.345Z,42.6
2022-08-24T03:40:01.312Z,42.4
2022-08-24T03:45:01.399Z,43.0
2022-08-24T03:50:01.268Z,43.4
2022-08-24T03:55:01.397Z,42.9
2022-08-24T04:00:01.317Z,44.0
2022-08-24T04:05:01.389Z,44.2
2022-08-24T04:10:01.254Z,46.5
2022-08-24T04:15:01.318Z,46.4
2022-08-24T04:20:01.245Z,46.2
2022-08-24T04:25:01.314Z,45.4
2022-08-24T04:30:01.241Z,44.6
2022-08-24T04:35:01.366Z,41.8
2022-08-24T04:40:01.252Z,42.5
2022-08-24T04:45:01.364Z,43.5
2022-08-24T04:50:01.226Z,44.2
2022-08-24T04:55:01.289Z,44.9
2022-08-24T05:00:01.241Z,45.3
2022-08-24T05:05:01.283Z,45.7
2022-08-24T05:15:01.346Z,45.7
2022-08-24T05:25:01.344Z,46.4
2022-08-24T05:30:01.206Z,46.2
2022-08-24T05:35:01.202Z,46.5
2022-08-24T05:40:01.389Z,46.8
2022-08-24T05:45:06.263Z,47.6
2022-08-24T05:50:01.195Z,48.1
2022-08-24T05:55:01.254Z,48.6
2022-08-24T06:00:01.223Z,48.1
2022-08-24T06:05:01.309Z,47.5
2022-08-24T06:10:14.919Z,47.2
2022-08-24T06:15:01.161Z,46.5
2022-08-24T06:20:01.175Z,46.1
2022-08-24T06:25:01.299Z,46.7
2022-08-24T06:30:01.227Z,48.3
2022-08-24T06:40:01.635Z,48.8
2022-08-24T06:45:01.437Z,49.2
2022-08-24T06:50:01.318Z,49.4
2022-08-24T06:55:01.274Z,48.2
2022-08-24T07:00:01.265Z,48.3
2022-08-24T07:05:01.363Z,48.2
2022-08-24T07:10:01.171Z,47.9
2022-08-24T07:15:01.223Z,48.4
2022-08-24T07:20:01.272Z,49.5
2022-08-24T07:30:23.444Z,50.1
2022-08-24T07:35:01.239Z,50.6
2022-08-24T07:45:01.257Z,50.5
2022-08-24T07:50:01.197Z,51.0
2022-08-24T07:55:01.246Z,51.2
2022-08-24T08:00:01.128Z,51.2
2022-08-24T08:10:01.252Z,51.3
2022-08-24T08:15:01.242Z,51.2
2022-08-24T08:20:02.212Z,50.7
2022-08-24T08:25:01.252Z,51.1
2022-08-24T08:30:01.113Z,51.6
2022-08-24T08:40:01.270Z,51.3
2022-08-24T08:45:01.179Z,51.0
2022-08-24T09:05:01.360Z,50.0
2022-08-24T09:25:01.589Z,50.2
2022-08-24T09:30:01.518Z,54.1
2022-08-24T09:45:00.987Z,48.2
2022-08-24T09:50:01.868Z,49.6
2022-08-24T10:05:01.456Z,49.0
2022-08-24T10:15:01.236Z,49.0
2022-08-24T10:20:01.160Z,48.7
2022-08-24T10:25:01.224Z,48.8
2022-08-24T10:30:01.161Z,48.6
2022-08-24T10:45:00.819Z,48.0
2022-08-24T11:05:01.209Z,47.6
2022-08-24T11:10:01.143Z,47.4
2022-08-24T11:15:01.131Z,46.6
2022-08-24T11:20:01.063Z,45.7
2022-08-24T11:35:01.625Z,46.0
2022-08-24T11:40:01.526Z,46.5
2022-08-24T11:45:06.345Z,46.0
2022-08-24T11:50:01.466Z,46.4
2022-08-24T11:55:01.560Z,46.9
2022-08-24T12:15:01.990Z,48.0
2022-08-24T12:20:00.952Z,49.9
2022-08-24T12:25:01.082Z,50.3
2022-08-24T12:30:00.946Z,50.7
2022-08-24T12:35:01.015Z,50.1
2022-08-24T12:55:01.494Z,53.8
2022-08-24T13:15:00.926Z,53.0
2022-08-24T13:35:01.259Z,49.0
2022-08-24T13:55:01.652Z,52.0
2022-08-24T14:00:01.504Z,48.8
2022-08-24T14:15:00.967Z,48.0
2022-08-24T14:20:00.820Z,48.5
2022-08-24T14:35:01.331Z,49.2
2022-08-24T14:40:01.222Z,47.7
2022-08-24T14:45:06.299Z,47.9
2022-08-24T15:00:01.297Z,47.9
2022-08-24T15:10:01.295Z,48.1
2022-08-24T15:15:01.350Z,48.0
2022-08-24T15:20:01.150Z,48.6
2022-08-24T15:25:01.272Z,47.9
2022-08-24T15:30:01.148Z,49.0
2022-08-24T15:35:01.268Z,49.5
2022-08-24T15:40:01.261Z,49.3
2022-08-24T15:45:01.197Z,48.7
2022-08-24T15:50:01.171Z,48.9
2022-08-24T16:05:01.164Z,50.0
2022-08-24T16:25:01.441Z,49.0
2022-08-24T16:30:01.416Z,50.3
2022-08-24T16:45:00.821Z,47.2
2022-08-24T16:50:00.751Z,47.6
2022-08-24T16:55:00.816Z,47.1
2022-08-24T17:00:00.757Z,46.5
2022-08-24T17:05:00.918Z,46.7
2022-08-24T17:10:00.756Z,46.5
2022-08-24T17:15:01.884Z,46.4
2022-08-24T17:25:00.817Z,47.8
2022-08-24T17:30:00.750Z,50.8
2022-08-24T17:35:00.879Z,51.8
2022-08-24T17:40:00.888Z,52.0
2022-08-24T17:45:00.821Z,52.7
2022-08-24T17:50:04.098Z,51.6
2022-08-24T17:55:00.946Z,48.6
2022-08-24T18:00:00.753Z,48.1
2022-08-24T18:05:00.871Z,48.2
2022-08-24T18:10:00.822Z,48.4
2022-08-24T18:15:00.891Z,50.1
2022-08-24T18:20:00.755Z,50.3
2022-08-24T18:25:00.898Z,50.2
2022-08-24T18:30:01.201Z,49.9
2022-08-24T18:45:01.016Z,48.6
2022-08-24T18:50:00.878Z,47.3
2022-08-24T18:55:01.008Z,48.5
2022-08-24T19:00:00.875Z,48.3
2022-08-24T19:05:00.942Z,47.9
2022-08-24T19:10:00.880Z,46.9
2022-08-24T19:15:00.940Z,46.4
2022-08-24T19:20:00.874Z,45.7
2022-08-24T19:25:01.015Z,45.2
2022-08-24T19:30:00.939Z,45.1
2022-08-24T19:35:01.017Z,45.6
2022-08-24T19:40:00.937Z,46.6
2022-08-24T19:45:01.231Z,46.3
2022-08-24T19:50:00.878Z,47.0
2022-08-24T19:55:00.965Z,47.3
2022-08-24T20:00:05.943Z,47.8
2022-08-24T20:05:00.968Z,47.4
2022-08-24T20:10:01.013Z,47.5
2022-08-24T20:15:01.006Z,46.9
2022-08-24T20:20:00.875Z,46.6
2022-08-24T20:25:00.946Z,45.5
2022-08-24T20:30:00.875Z,44.9
2022-08-24T20:35:00.962Z,44.1
2022-08-24T20:40:00.986Z,44.0
2022-08-24T20:45:00.970Z,43.5
2022-08-24T20:50:00.928Z,43.4
2022-08-24T20:55:00.985Z,42.9
2022-08-24T21:00:00.917Z,42.8
2022-08-24T21:05:01.055Z,41.8
2022-08-24T21:10:00.920Z,41.5
2022-08-24T21:15:01.384Z,40.8
2022-08-24T21:25:01.009Z,40.2
2022-08-24T21:30:00.878Z,40.8
2022-08-24T21:40:00.989Z,41.1
2022-08-24T21:45:00.947Z,41.4
2022-08-24T22:00:00.949Z,41.0
2022-08-24T22:10:00.986Z,40.3
2022-08-24T22:15:01.039Z,40.9
2022-08-24T22:20:00.913Z,40.8
2022-08-24T22:25:00.980Z,39.8
2022-08-24T22:30:00.909Z,39.6
2022-08-24T22:35:00.977Z,38.7
2022-08-24T22:40:00.974Z,37.2
2022-08-24T22:45:00.977Z,36.5
2022-08-24T22:50:00.909Z,38.8
2022-08-24T22:55:01.000Z,39.6
2022-08-24T23:00:00.910Z,41.2
2022-08-24T23:05:00.975Z,42.8
2022-08-24T23:10:00.915Z,43.4
2022-08-24T23:15:00.976Z,42.7
2022-08-24T23:20:01.159Z,41.3
2022-08-24T23:25:01.052Z,41.1
2022-08-24T23:30:00.921Z,40.9
2022-08-24T23:35:01.043Z,44.4
2022-08-24T23:40:01.076Z,43.9
2022-08-24T23:45:01.047Z,44.4
2022-08-24T23:50:00.919Z,44.7
2022-08-24T23:55:07.002Z,44.4
